Neilton, WA

12:24 PM PDT on September 01, 2014 (GMT -0700)
RAWS BLACK KNOB WA US | Change Station
CLOSE
Current Station
Personal Weather Station
Location: Amanda Park, WA
Elevation: 618 ft
Nearby Weather Stations

Elev 618 ft 47.41 °N, 124.10 °W | Updated 53 minutes ago

Mostly Cloudy
Mostly Cloudy
65 °F
Feels Like 65 °F
N
4
Wind Variable Wind from SSE
Gusts 6.0 mph

Today
High -- | Low -- °F
--% Chance of Precip.
Yesterday
High -- | Low -- °F
Precip. -- in
6:34 AM 7:55 PM
Waxing Crescent, 43% visible
Pressure 30.10 in
Visibility 7.0 miles
Clouds Mostly Cloudy 600 ft
Overcast 2800 ft
Dew Point 58 °F
Humidity 79%
Rainfall 0.00 in
Snow Depth Not available.
UV 2 out of 12
Pollen 2.90 out of 12
PM2.5 Good
Flu Activity Not available.
METAR KHQM 011853Z AUTO 26003KT 7SM BKN006 OVC028 18/16 A3008 RMK AO2 SLP191 T01830161

More Conditions Fewer Conditions

Pressure 30.10 in
Visibility 7.0 miles
Clouds Mostly Cloudy 600 ft
Overcast 2800 ft
Dew Point 58 °F
Humidity 79%
Rainfall 0.00 in
Snow Depth Not available.
UV 2 out of 12
Pollen 2.90 out of 12
PM2.5 Good
Flu Activity Not available.
METAR KHQM 011853Z AUTO 26003KT 7SM BKN006 OVC028 18/16 A3008 RMK AO2 SLP191 T01830161

More Conditions Fewer Conditions

10-Day Weather Forecast

Almanac

Astronomy

Sep. 01, 2014 Rise Set
Actual Time 6:34 AM PDT 7:55 PM PDT
Civil Twilight 6:02 AM PDT 8:27 PM PDT
Nautical Twilight 5:24 AM PDT 9:05 PM PDT
Astronomical Twilight 4:42 AM PDT 9:46 PM PDT
Moon 1:53 PM PDT 11:32 PM PDT
Length of Visible Light 14h 24m
Length of Day
13h 20m
Tomorrow will be 3m 17s shorter.
Waxing Crescent, 43% of the Moon is Illuminated
Today
Waxing Crescent
Sep 2
First Quarter
Sep 8
Full
Sep 15
Last Quarter
Sep 24
New

Today's Extremes

State Highs State Lows

Community

WunderPhotos

Upload Photos

1,749,378 photos uploaded!

WunderBlogs® & News

Nearby

Air Quality

  Air Quality AQ Index Pollutant
Yesterday Good
PM2.5
Current Good
PM2.5

Snow Depth

Station Depth Elevation
Dungeness 0 in 4100 ft
Alpine Meadows 0 in 3500 ft
Meadows Pass 0 in 3500 ft
Swift Creek 0 in 3770 ft
Stampede Pass 1 in 3860 ft

Earthquake Activity

City Distance Mag. Time & Date
No recent earthquake activity has been reported nearby.
Minimum magnitude displayed is 2.5.

Coastal Water Temperatures

Place Temperature
Westport, WA 60.1 °F
Astoria, OR 70.0 °F
La Push, WA 53.1 °F

Nearby Weather Stations